Time,TemperatureF,DewpointF,PressureIn,WindDirection,WindDirectionDegrees,WindSpeedMPH,WindSpeedGustMPH,Humidity,HourlyPrecipIn,Conditions,Clouds,dailyrainin,SoftwareType,DateUTC
2013-02-16 00:02:00,42.0,33.0,29.94,North,5,1.0,4.0,71,0.00,,,0.00,,2013-02-16 05:02:00,
2013-02-16 00:12:00,42.0,33.0,29.94,North,5,1.0,4.0,71,0.00,,,0.00,,2013-02-16 05:12:00,
2013-02-16 00:22:00,42.0,33.0,29.93,North,5,0.0,4.0,70,0.00,,,0.00,,2013-02-16 05:22:00,
2013-02-16 00:32:00,41.0,33.0,29.93,North,5,0.0,3.0,72,0.00,,,0.00,,2013-02-16 05:32:00,
2013-02-16 00:42:00,41.0,33.0,29.93,North,5,0.0,3.0,72,0.00,,,0.00,,2013-02-16 05:42:00,
2013-02-16 00:52:00,41.0,33.0,29.93,North,5,1.0,5.0,74,0.00,,,0.00,,2013-02-16 05:52:00,
2013-02-16 01:02:00,40.0,33.0,29.93,North,5,0.0,2.0,75,0.00,,,0.00,,2013-02-16 06:02:00,
2013-02-16 01:11:00,40.0,33.0,29.93,North,5,0.0,2.0,75,0.00,,,0.00,,2013-02-16 06:11:00,
2013-02-16 01:22:00,39.0,32.0,29.93,North,5,0.0,2.0,77,0.00,,,0.00,,2013-02-16 06:22:00,
2013-02-16 01:32:00,38.0,32.0,29.93,North,5,0.0,0.0,79,0.00,,,0.00,,2013-02-16 06:32:00,
2013-02-16 01:42:00,38.0,32.0,29.93,North,5,0.0,0.0,79,0.00,,,0.00,,2013-02-16 06:42:00,
2013-02-16 01:52:00,37.0,32.0,29.92,North,5,0.0,1.0,81,0.00,,,0.00,,2013-02-16 06:52:00,
2013-02-16 02:02:00,37.0,32.0,29.92,North,5,0.0,0.0,82,0.00,,,0.00,,2013-02-16 07:02:00,
2013-02-16 02:11:00,37.0,32.0,29.92,North,5,0.0,0.0,82,0.00,,,0.00,,2013-02-16 07:11:00,
2013-02-16 02:21:00,36.0,31.0,29.92,North,5,0.0,1.0,83,0.00,,,0.00,,2013-02-16 07:21:00,
2013-02-16 02:32:00,36.0,32.0,29.91,North,5,0.0,2.0,84,0.00,,,0.00,,2013-02-16 07:32:00,
2013-02-16 02:42:00,36.0,32.0,29.91,North,5,0.0,2.0,84,0.00,,,0.00,,2013-02-16 07:42:00,
2013-02-16 02:53:00,36.0,31.0,29.91,North,5,0.0,0.0,83,0.00,,,0.00,,2013-02-16 07:53:00,
2013-02-16 03:01:00,37.0,32.0,29.91,North,5,0.0,0.0,83,0.00,,,0.00,,2013-02-16 08:01:00,
2013-02-16 03:11:00,37.0,32.0,29.91,North,5,0.0,0.0,83,0.00,,,0.00,,2013-02-16 08:11:00,
2013-02-16 03:21:00,37.0,32.0,29.91,North,5,0.0,0.0,82,0.00,,,0.00,,2013-02-16 08:21:00,
2013-02-16 03:31:00,37.0,31.0,29.90,North,5,0.0,1.0,79,0.00,,,0.00,,2013-02-16 08:31:00,
2013-02-16 03:42:00,37.0,31.0,29.90,North,5,0.0,1.0,79,0.00,,,0.00,,2013-02-16 08:42:00,
2013-02-16 03:52:00,37.0,31.0,29.90,North,5,0.0,0.0,78,0.00,,,0.00,,2013-02-16 08:52:00,
2013-02-16 04:02:00,37.0,31.0,29.89,North,5,1.0,3.0,78,0.00,,,0.00,,2013-02-16 09:02:00,
2013-02-16 04:11:00,37.0,31.0,29.89,North,5,1.0,3.0,78,0.00,,,0.00,,2013-02-16 09:11:00,
2013-02-16 04:21:00,38.0,30.0,29.89,North,5,0.0,1.0,74,0.00,,,0.00,,2013-02-16 09:21:00,
2013-02-16 04:32:00,38.0,30.0,29.89,North,5,1.0,3.0,72,0.00,,,0.00,,2013-02-16 09:32:00,
2013-02-16 04:42:00,38.0,30.0,29.89,North,5,1.0,3.0,72,0.00,,,0.00,,2013-02-16 09:42:00,
2013-02-16 04:52:00,38.0,29.0,29.89,North,360,0.0,2.0,69,0.00,,,0.00,,2013-02-16 09:52:00,
2013-02-16 05:01:00,38.0,28.0,29.89,North,5,0.0,4.0,66,0.00,,,0.00,,2013-02-16 10:01:00,
2013-02-16 05:11:00,38.0,28.0,29.89,North,5,0.0,4.0,66,0.00,,,0.00,,2013-02-16 10:11:00,
2013-02-16 05:21:00,38.0,27.0,29.89,North,5,0.0,2.0,65,0.00,,,0.00,,2013-02-16 10:21:00,
2013-02-16 05:32:00,38.0,27.0,29.90,North,5,0.0,0.0,65,0.00,,,0.00,,2013-02-16 10:32:00,
2013-02-16 05:42:00,38.0,27.0,29.90,North,5,0.0,0.0,65,0.00,,,0.00,,2013-02-16 10:42:00,
2013-02-16 05:52:00,38.0,28.0,29.90,North,5,0.0,2.0,66,0.00,,,0.00,,2013-02-16 10:52:00,
2013-02-16 06:02:00,38.0,28.0,29.90,North,5,0.0,2.0,66,0.00,,,0.00,,2013-02-16 11:02:00,
2013-02-16 06:11:00,38.0,28.0,29.90,North,5,0.0,2.0,66,0.00,,,0.00,,2013-02-16 11:11:00,
2013-02-16 06:22:00,38.0,28.0,29.91,North,5,0.0,1.0,68,0.00,,,0.00,,2013-02-16 11:22:00,
2013-02-16 06:32:00,38.0,27.0,29.91,North,5,0.0,3.0,65,0.00,,,0.00,,2013-02-16 11:32:00,
2013-02-16 06:42:00,38.0,27.0,29.91,North,5,0.0,3.0,65,0.00,,,0.00,,2013-02-16 11:42:00,
2013-02-16 06:52:00,38.0,27.0,29.91,North,5,0.0,2.0,65,0.00,,,0.00,,2013-02-16 11:52:00,
2013-02-16 07:02:00,38.0,28.0,29.90,North,5,0.0,2.0,67,0.00,,,0.00,,2013-02-16 12:02:00,
2013-02-16 07:12:00,38.0,28.0,29.90,North,5,0.0,2.0,67,0.00,,,0.00,,2013-02-16 12:12:00,
2013-02-16 07:22:00,38.0,30.0,29.91,North,5,0.0,0.0,72,0.00,,,0.00,,2013-02-16 12:22:00,
2013-02-16 07:32:00,37.0,29.0,29.91,North,5,0.0,0.0,74,0.00,,,0.00,,2013-02-16 12:32:00,
2013-02-16 07:42:00,37.0,29.0,29.91,North,5,0.0,0.0,74,0.00,,,0.00,,2013-02-16 12:42:00,
2013-02-16 07:52:00,37.0,30.0,29.90,North,5,0.0,0.0,75,0.00,,,0.00,,2013-02-16 12:52:00,
2013-02-16 08:02:00,37.0,30.0,29.90,North,5,0.0,0.0,76,0.00,,,0.00,,2013-02-16 13:02:00,
2013-02-16 08:12:00,37.0,30.0,29.90,North,5,0.0,0.0,76,0.00,,,0.00,,2013-02-16 13:12:00,
2013-02-16 08:22:00,37.0,29.0,29.90,North,5,0.0,0.0,74,0.00,,,0.00,,2013-02-16 13:22:00,
2013-02-16 08:32:00,37.0,29.0,29.90,North,5,0.0,2.0,74,0.00,,,0.00,,2013-02-16 13:32:00,
2013-02-16 08:41:00,37.0,29.0,29.90,North,5,0.0,2.0,74,0.00,,,0.00,,2013-02-16 13:41:00,
2013-02-16 08:52:00,37.0,30.0,29.90,North,5,0.0,0.0,75,0.00,,,0.00,,2013-02-16 13:52:00,
2013-02-16 09:01:00,37.0,28.0,29.90,North,5,0.0,2.0,70,0.00,,,0.00,,2013-02-16 14:01:00,
2013-02-16 09:11:00,37.0,28.0,29.90,North,5,0.0,2.0,70,0.00,,,0.00,,2013-02-16 14:11:00,
2013-02-16 09:21:00,38.0,28.0,29.90,North,5,1.0,3.0,66,0.00,,,0.00,,2013-02-16 14:21:00,
2013-02-16 09:32:00,39.0,28.0,29.89,North,5,0.0,4.0,65,0.00,,,0.00,,2013-02-16 14:32:00,
2013-02-16 09:42:00,39.0,28.0,29.89,North,5,0.0,4.0,65,0.00,,,0.00,,2013-02-16 14:42:00,
2013-02-16 09:52:00,39.0,28.0,29.89,North,5,1.0,4.0,64,0.00,,,0.00,,2013-02-16 14:52:00,
2013-02-16 10:02:00,39.0,27.0,29.88,North,5,0.0,2.0,63,0.00,,,0.00,,2013-02-16 15:02:00,
2013-02-16 10:11:00,39.0,27.0,29.88,North,5,0.0,2.0,63,0.00,,,0.00,,2013-02-16 15:11:00,
2013-02-16 10:22:00,40.0,28.0,29.88,North,5,0.0,2.0,62,0.00,,,0.00,,2013-02-16 15:22:00,
2013-02-16 10:32:00,40.0,28.0,29.88,North,5,0.0,3.0,61,0.00,,,0.00,,2013-02-16 15:32:00,
2013-02-16 10:42:00,40.0,28.0,29.88,North,5,0.0,3.0,61,0.00,,,0.00,,2013-02-16 15:42:00,
2013-02-16 10:52:00,40.0,28.0,29.88,North,5,0.0,3.0,61,0.00,,,0.00,,2013-02-16 15:52:00,
2013-02-16 11:01:00,41.0,27.0,29.88,North,5,1.0,6.0,58,0.00,,,0.00,,2013-02-16 16:01:00,
2013-02-16 11:11:00,41.0,27.0,29.88,North,5,1.0,6.0,58,0.00,,,0.00,,2013-02-16 16:11:00,
2013-02-16 11:21:00,41.0,27.0,29.88,North,5,2.0,5.0,58,0.00,,,0.00,,2013-02-16 16:21:00,
2013-02-16 11:32:00,41.0,27.0,29.87,North,5,0.0,3.0,57,0.00,,,0.00,,2013-02-16 16:32:00,
2013-02-16 11:42:00,41.0,27.0,29.87,North,5,0.0,3.0,57,0.00,,,0.00,,2013-02-16 16:42:00,
2013-02-16 11:52:00,41.0,27.0,29.86,North,5,0.0,3.0,56,0.00,,,0.00,,2013-02-16 16:52:00,
2013-02-16 12:01:00,41.0,27.0,29.86,North,5,1.0,3.0,58,0.00,,,0.00,,2013-02-16 17:01:00,
2013-02-16 12:11:00,41.0,27.0,29.86,North,5,1.0,3.0,58,0.00,,,0.00,,2013-02-16 17:11:00,
2013-02-16 12:22:00,41.0,29.0,29.85,North,5,0.0,3.0,61,0.00,,,0.00,,2013-02-16 17:22:00,
2013-02-16 12:32:00,41.0,29.0,29.85,North,5,1.0,3.0,61,0.00,,,0.00,,2013-02-16 17:32:00,
2013-02-16 12:42:00,41.0,29.0,29.85,North,5,1.0,3.0,61,0.00,,,0.00,,2013-02-16 17:42:00,
2013-02-16 12:52:00,41.0,28.0,29.84,North,5,1.0,3.0,60,0.00,,,0.00,,2013-02-16 17:52:00,
2013-02-16 13:02:00,41.0,32.0,29.83,North,5,1.0,4.0,70,0.00,,,0.00,,2013-02-16 18:02:00,
2013-02-16 13:11:00,39.0,31.0,29.83,North,5,1.0,9.0,74,0.00,,,0.00,,2013-02-16 18:11:00,
2013-02-16 13:21:00,39.0,31.0,29.83,North,5,1.0,9.0,74,0.00,,,0.00,,2013-02-16 18:21:00,
2013-02-16 13:33:00,38.0,31.0,29.83,North,5,3.0,7.0,76,0.00,,,0.00,,2013-02-16 18:33:00,
2013-02-16 13:42:00,38.0,31.0,29.83,North,5,3.0,7.0,76,0.00,,,0.00,,2013-02-16 18:42:00,
2013-02-16 13:52:00,37.0,32.0,29.83,North,5,1.0,5.0,81,0.00,,,0.00,,2013-02-16 18:52:00,
2013-02-16 14:02:00,36.0,32.0,29.82,North,5,1.0,3.0,85,0.00,,,0.00,,2013-02-16 19:02:00,
2013-02-16 14:11:00,36.0,32.0,29.82,North,5,1.0,3.0,85,0.00,,,0.00,,2013-02-16 19:11:00,
2013-02-16 14:22:00,34.0,31.0,29.83,North,5,1.0,6.0,87,0.00,,,0.00,,2013-02-16 19:22:00,
2013-02-16 14:32:00,33.0,30.0,29.82,North,5,0.0,4.0,88,0.00,,,0.00,,2013-02-16 19:32:00,
2013-02-16 14:42:00,33.0,30.0,29.82,North,5,0.0,4.0,88,0.00,,,0.00,,2013-02-16 19:42:00,
2013-02-16 14:52:00,33.0,30.0,29.82,North,5,0.0,2.0,89,0.00,,,0.00,,2013-02-16 19:52:00,
2013-02-16 15:01:00,33.0,30.0,29.81,North,5,0.0,1.0,90,0.01,,,0.01,,2013-02-16 20:01:00,
2013-02-16 15:11:00,33.0,30.0,29.81,North,5,1.0,4.0,90,0.02,,,0.02,,2013-02-16 20:11:00,
2013-02-16 15:22:00,33.0,30.0,29.81,North,5,1.0,4.0,90,0.02,,,0.02,,2013-02-16 20:22:00,
2013-02-16 15:32:00,34.0,31.0,29.81,North,5,0.0,3.0,87,0.03,,,0.03,,2013-02-16 20:32:00,
2013-02-16 15:42:00,34.0,31.0,29.81,North,5,0.0,3.0,87,0.03,,,0.03,,2013-02-16 20:42:00,
2013-02-16 15:52:00,34.0,31.0,29.81,North,5,0.0,3.0,87,0.03,,,0.03,,2013-02-16 20:52:00,
2013-02-16 16:02:00,36.0,30.0,29.82,North,5,0.0,3.0,80,0.02,,,0.03,,2013-02-16 21:02:00,
2013-02-16 16:11:00,36.0,30.0,29.82,North,5,0.0,3.0,80,0.02,,,0.03,,2013-02-16 21:11:00,
2013-02-16 16:21:00,37.0,28.0,29.82,North,5,3.0,7.0,71,0.01,,,0.03,,2013-02-16 21:21:00,
2013-02-16 16:32:00,38.0,26.0,29.83,North,5,3.0,8.0,61,0.00,,,0.03,,2013-02-16 21:32:00,
2013-02-16 16:42:00,38.0,26.0,29.83,North,5,3.0,8.0,61,0.00,,,0.03,,2013-02-16 21:42:00,
2013-02-16 16:52:00,39.0,25.0,29.83,North,5,1.0,7.0,58,0.00,,,0.03,,2013-02-16 21:52:00,
2013-02-16 17:01:00,40.0,23.0,29.83,North,5,3.0,7.0,50,0.00,,,0.03,,2013-02-16 22:01:00,
2013-02-16 17:11:00,40.0,23.0,29.83,North,5,3.0,7.0,50,0.00,,,0.03,,2013-02-16 22:11:00,
2013-02-16 17:21:00,39.0,19.0,29.84,North,5,0.0,9.0,44,0.00,,,0.03,,2013-02-16 22:21:00,
2013-02-16 17:32:00,38.0,18.0,29.85,North,5,2.0,8.0,43,0.00,,,0.03,,2013-02-16 22:32:00,
2013-02-16 17:42:00,38.0,18.0,29.85,North,5,2.0,8.0,43,0.00,,,0.03,,2013-02-16 22:42:00,
2013-02-16 17:52:00,37.0,18.0,29.86,North,5,3.0,6.0,46,0.00,,,0.03,,2013-02-16 22:52:00,
2013-02-16 18:02:00,37.0,17.0,29.87,North,5,2.0,4.0,44,0.00,,,0.03,,2013-02-16 23:02:00,
2013-02-16 18:11:00,37.0,17.0,29.87,North,5,2.0,4.0,44,0.00,,,0.03,,2013-02-16 23:11:00,
2013-02-16 18:21:00,36.0,16.0,29.88,North,5,1.0,10.0,43,0.00,,,0.03,,2013-02-16 23:21:00,
2013-02-16 18:32:00,35.0,15.0,29.88,North,5,2.0,6.0,44,0.00,,,0.03,,2013-02-16 23:32:00,
2013-02-16 18:42:00,35.0,15.0,29.88,North,5,2.0,6.0,44,0.00,,,0.03,,2013-02-16 23:42:00,
2013-02-16 18:52:00,34.0,14.0,29.89,North,5,2.0,6.0,43,0.00,,,0.03,,2013-02-16 23:52:00,
2013-02-16 19:02:00,34.0,12.0,29.91,North,5,5.0,13.0,40,0.00,,,0.03,,2013-02-17 00:02:00,
2013-02-16 19:12:00,34.0,12.0,29.91,North,5,5.0,13.0,40,0.00,,,0.03,,2013-02-17 00:12:00,
2013-02-16 19:22:00,34.0,19.0,29.92,North,5,0.0,5.0,53,0.00,,,0.03,,2013-02-17 00:22:00,
2013-02-16 19:32:00,32.0,18.0,29.93,North,5,0.0,6.0,55,0.00,,,0.03,,2013-02-17 00:32:00,
2013-02-16 19:42:00,32.0,18.0,29.93,North,5,0.0,6.0,55,0.00,,,0.03,,2013-02-17 00:42:00,
2013-02-16 19:52:00,32.0,19.0,29.93,North,5,0.0,3.0,59,0.00,,,0.03,,2013-02-17 00:52:00,
2013-02-16 20:01:00,31.0,15.0,29.94,North,5,0.0,2.0,52,0.00,,,0.03,,2013-02-17 01:01:00,
2013-02-16 20:11:00,31.0,15.0,29.94,North,5,0.0,2.0,52,0.00,,,0.03,,2013-02-17 01:11:00,
2013-02-16 20:21:00,31.0,15.0,29.95,North,5,1.0,6.0,52,0.00,,,0.03,,2013-02-17 01:21:00,
2013-02-16 20:32:00,31.0,15.0,29.96,North,5,2.0,8.0,52,0.00,,,0.03,,2013-02-17 01:32:00,
2013-02-16 20:41:00,31.0,15.0,29.96,North,5,2.0,8.0,52,0.00,,,0.03,,2013-02-17 01:41:00,
2013-02-16 20:52:00,31.0,15.0,29.96,North,5,1.0,5.0,50,0.00,,,0.03,,2013-02-17 01:52:00,
2013-02-16 21:01:00,31.0,15.0,29.97,North,5,2.0,9.0,51,0.00,,,0.03,,2013-02-17 02:01:00,
2013-02-16 21:11:00,31.0,15.0,29.97,North,5,2.0,9.0,51,0.00,,,0.03,,2013-02-17 02:11:00,
2013-02-16 21:21:00,31.0,16.0,29.98,North,5,0.0,3.0,54,0.00,,,0.03,,2013-02-17 02:21:00,
2013-02-16 21:32:00,30.0,15.0,29.98,North,5,1.0,4.0,53,0.00,,,0.03,,2013-02-17 02:32:00,
2013-02-16 21:42:00,30.0,15.0,29.98,North,5,1.0,4.0,53,0.00,,,0.03,,2013-02-17 02:42:00,
2013-02-16 21:52:00,30.0,15.0,30.00,North,5,2.0,12.0,52,0.00,,,0.03,,2013-02-17 02:52:00,
2013-02-16 22:02:00,30.0,14.0,30.00,North,5,1.0,5.0,51,0.00,,,0.03,,2013-02-17 03:02:00,
2013-02-16 22:11:00,30.0,14.0,30.00,North,5,1.0,5.0,51,0.00,,,0.03,,2013-02-17 03:11:00,
2013-02-16 22:21:00,30.0,14.0,30.00,North,5,2.0,8.0,51,0.00,,,0.03,,2013-02-17 03:21:00,
2013-02-16 22:32:00,30.0,15.0,30.01,North,5,0.0,3.0,52,0.00,,,0.03,,2013-02-17 03:32:00,
2013-02-16 22:42:00,30.0,15.0,30.01,North,5,0.0,3.0,52,0.00,,,0.03,,2013-02-17 03:42:00,
2013-02-16 22:52:00,29.0,17.0,30.01,North,5,0.0,1.0,60,0.00,,,0.03,,2013-02-17 03:52:00,
2013-02-16 23:01:00,29.0,19.0,30.01,North,5,0.0,0.0,66,0.00,,,0.03,,2013-02-17 04:01:00,
2013-02-16 23:11:00,29.0,19.0,30.01,North,5,0.0,0.0,66,0.00,,,0.03,,2013-02-17 04:11:00,
2013-02-16 23:21:00,28.0,20.0,30.01,North,5,0.0,1.0,70,0.00,,,0.03,,2013-02-17 04:21:00,
2013-02-16 23:32:00,28.0,17.0,30.01,North,5,0.0,2.0,64,0.00,,,0.03,,2013-02-17 04:32:00,
2013-02-16 23:42:00,28.0,17.0,30.01,North,5,0.0,2.0,64,0.00,,,0.03,,2013-02-17 04:42:00,
2013-02-16 23:52:00,28.0,18.0,30.01,North,5,0.0,3.0,65,0.00,,,0.03,,2013-02-17 04:52:00,